createdAt,value
2023-04-04T00:00:18.506Z,51.259739
2023-04-04T00:01:18.450Z,51.259834
2023-04-04T00:02:18.450Z,51.259796
2023-04-04T00:03:18.538Z,51.259621
2023-04-04T00:04:18.459Z,51.259758
2023-04-04T00:05:18.424Z,51.259602
2023-04-04T00:06:18.403Z,51.259541
2023-04-04T00:07:18.393Z,51.259640
2023-04-04T00:08:18.383Z,51.259628
2023-04-04T00:09:18.366Z,51.259754
2023-04-04T00:10:18.381Z,51.259560
2023-04-04T00:11:18.355Z,51.259445
2023-04-04T00:12:18.350Z,51.259411
2023-04-04T00:13:18.336Z,51.259399
2023-04-04T00:14:18.331Z,51.259430
2023-04-04T00:15:18.384Z,51.259403
2023-04-04T00:16:18.351Z,51.259415
2023-04-04T00:17:18.305Z,51.259533
2023-04-04T00:18:18.288Z,51.259735
2023-04-04T00:19:18.362Z,51.259510
2023-04-04T00:20:18.277Z,51.259502
2023-04-04T00:21:18.264Z,51.259521
2023-04-04T00:22:18.258Z,51.259464
2023-04-04T00:23:19.252Z,51.259415
2023-04-04T00:24:18.289Z,51.259502
2023-04-04T00:25:18.257Z,51.259518
2023-04-04T00:26:18.238Z,51.259560
2023-04-04T00:27:18.226Z,51.259563
2023-04-04T00:28:18.211Z,51.259499
2023-04-04T00:29:18.204Z,51.259464
2023-04-04T00:30:18.212Z,51.259541
2023-04-04T00:31:18.227Z,51.259533
2023-04-04T00:32:18.206Z,51.259541
2023-04-04T00:33:18.181Z,51.259586
2023-04-04T00:34:18.154Z,51.259537
2023-04-04T00:35:18.208Z,51.259525
2023-04-04T00:36:18.162Z,51.259548
2023-04-04T00:37:18.135Z,51.259541
2023-04-04T00:38:18.126Z,51.259502
2023-04-04T00:39:18.109Z,51.259502
2023-04-04T00:40:18.144Z,51.259510
2023-04-04T00:41:18.100Z,51.259590
2023-04-04T00:42:18.158Z,51.259544
2023-04-04T00:43:18.079Z,51.259567
2023-04-04T00:44:18.070Z,51.259548
2023-04-04T00:45:18.075Z,51.259476
2023-04-04T00:46:18.051Z,51.259483
2023-04-04T00:47:18.049Z,51.259544
2023-04-04T00:48:18.047Z,51.259563
2023-04-04T00:49:18.051Z,51.259560
2023-04-04T00:50:18.052Z,51.259537
2023-04-04T00:51:18.030Z,51.259575
2023-04-04T00:52:18.009Z,51.259499
2023-04-04T00:53:17.989Z,51.259552
2023-04-04T00:54:17.974Z,51.259552
2023-04-04T00:55:17.978Z,51.259468
2023-04-04T00:56:17.986Z,51.259575
2023-04-04T00:57:17.950Z,51.259613
2023-04-04T00:58:17.938Z,51.259544
2023-04-04T00:59:17.961Z,51.259663
2023-04-04T01:00:17.953Z,51.259621
2023-04-04T01:01:17.972Z,51.259567
2023-04-04T01:02:17.914Z,51.259567
2023-04-04T01:03:17.898Z,51.259552
2023-04-04T01:04:17.948Z,51.259552
2023-04-04T01:05:17.943Z,51.259628
2023-04-04T01:06:17.895Z,51.259686
2023-04-04T01:07:17.863Z,51.259609
2023-04-04T01:08:17.856Z,51.259548
2023-04-04T01:09:17.852Z,51.259590
2023-04-04T01:10:17.834Z,51.259598
2023-04-04T01:11:17.884Z,51.259560
2023-04-04T01:12:17.820Z,51.259590
2023-04-04T01:13:17.805Z,51.259529
2023-04-04T01:14:17.792Z,51.259533
2023-04-04T01:15:17.794Z,51.259537
2023-04-04T01:16:17.817Z,51.259548
2023-04-04T01:17:17.768Z,51.259556
2023-04-04T01:18:17.753Z,51.259563
2023-04-04T01:19:17.741Z,51.259579
2023-04-04T01:20:17.760Z,51.259567
2023-04-04T01:21:17.720Z,51.259640
2023-04-04T01:22:17.722Z,51.259613
2023-04-04T01:23:17.712Z,51.259563
2023-04-04T01:24:17.704Z,51.259579
2023-04-04T01:25:17.740Z,51.259613
2023-04-04T01:26:17.706Z,51.259624
2023-04-04T01:27:17.674Z,51.259640
2023-04-04T01:28:17.656Z,51.259533
2023-04-04T01:29:17.643Z,51.259613
2023-04-04T01:30:17.646Z,51.259586
2023-04-04T01:31:17.666Z,51.259651
2023-04-04T01:32:17.640Z,51.259613
2023-04-04T01:33:17.609Z,51.259644
2023-04-04T01:34:17.610Z,51.259670
2023-04-04T01:35:17.597Z,51.259602
2023-04-04T01:36:17.653Z,51.259575
2023-04-04T01:37:17.576Z,51.259529
2023-04-04T01:38:17.569Z,51.259525
2023-04-04T01:39:17.568Z,51.259518
2023-04-04T01:40:17.552Z,51.259579
2023-04-04T01:41:17.551Z,51.259590
2023-04-04T01:42:17.525Z,51.259556
2023-04-04T01:43:17.514Z,51.259563
2023-04-04T01:44:17.501Z,51.259537
2023-04-04T01:45:17.500Z,51.259552
2023-04-04T01:46:17.524Z,51.259575
2023-04-04T01:47:17.473Z,51.259563
2023-04-04T01:48:17.465Z,51.259659
2023-04-04T01:49:17.567Z,51.259651
2023-04-04T01:50:17.462Z,51.259632
2023-04-04T01:51:17.507Z,51.259552
2023-04-04T01:52:17.426Z,51.259541
2023-04-04T01:53:17.430Z,51.259556
2023-04-04T01:54:17.429Z,51.259510
2023-04-04T01:55:17.397Z,51.259438
2023-04-04T01:56:17.408Z,51.259449
2023-04-04T01:57:17.378Z,51.259590
2023-04-04T01:58:17.387Z,51.259506
2023-04-04T01:59:17.389Z,51.259495
2023-04-04T02:00:17.352Z,51.259552
2023-04-04T02:01:17.361Z,51.259506
2023-04-04T02:02:17.346Z,51.259563
2023-04-04T02:03:17.331Z,51.259480
2023-04-04T02:04:17.348Z,51.259583
2023-04-04T02:05:17.303Z,51.259510
2023-04-04T02:06:17.306Z,51.259533
2023-04-04T02:07:17.285Z,51.259480
2023-04-04T02:08:17.274Z,51.259514
2023-04-04T02:09:17.266Z,51.259487
2023-04-04T02:10:17.260Z,51.259521
2023-04-04T02:11:17.274Z,51.259556
2023-04-04T02:12:17.239Z,51.259560
2023-04-04T02:13:17.234Z,51.259533
2023-04-04T02:14:17.232Z,51.259521
2023-04-04T02:15:17.204Z,51.259510
2023-04-04T02:16:17.250Z,51.259483
2023-04-04T02:17:17.188Z,51.259483
2023-04-04T02:18:17.180Z,51.259521
2023-04-04T02:19:17.174Z,51.259514
2023-04-04T02:20:17.165Z,51.259495
2023-04-04T02:21:17.175Z,51.259560
2023-04-04T02:22:17.138Z,51.259552
2023-04-04T02:23:18.129Z,51.259563
2023-04-04T02:24:17.112Z,51.259499
2023-04-04T02:25:17.107Z,51.259518
2023-04-04T02:26:17.123Z,51.259499
2023-04-04T02:27:17.094Z,51.259510
2023-04-04T02:28:17.100Z,51.259499
2023-04-04T02:29:17.086Z,51.259544
2023-04-04T02:30:17.080Z,51.259560
2023-04-04T02:31:17.100Z,51.259552
2023-04-04T02:32:17.038Z,51.259609
2023-04-04T02:33:17.029Z,51.259613
2023-04-04T02:34:17.024Z,51.259583
2023-04-04T02:35:17.011Z,51.259521
2023-04-04T02:36:17.056Z,51.259617
2023-04-04T02:37:16.990Z,51.259567
2023-04-04T02:38:16.984Z,51.259491
2023-04-04T02:39:16.973Z,51.259544
2023-04-04T02:40:16.975Z,51.259632
2023-04-04T02:41:16.974Z,51.259640
2023-04-04T02:42:16.949Z,51.259541
2023-04-04T02:43:16.936Z,51.259636
2023-04-04T02:44:16.925Z,51.259674
2023-04-04T02:45:16.921Z,51.259644
2023-04-04T02:46:21.564Z,51.259617
2023-04-04T02:47:18.901Z,51.259575
2023-04-04T02:48:16.893Z,51.259594
2023-04-04T02:49:16.874Z,51.259586
2023-04-04T02:50:16.874Z,51.259510
2023-04-04T02:51:16.882Z,51.259621
2023-04-04T02:52:16.874Z,51.259632
2023-04-04T02:53:16.838Z,51.259506
2023-04-04T02:54:16.829Z,51.259583
2023-04-04T02:55:16.824Z,51.259552
2023-04-04T02:56:16.849Z,51.259518
2023-04-04T02:57:16.795Z,51.259644
2023-04-04T02:58:16.796Z,51.259567
2023-04-04T02:59:16.822Z,51.259647
2023-04-04T03:00:16.798Z,51.259636
2023-04-04T03:01:16.875Z,51.259636
2023-04-04T03:02:16.869Z,51.259621
2023-04-04T03:03:16.866Z,51.259693
2023-04-04T03:04:16.781Z,51.259659
2023-04-04T03:05:16.717Z,51.259716
2023-04-04T03:06:16.725Z,51.259678
2023-04-04T03:07:16.698Z,51.259666
2023-04-04T03:08:16.681Z,51.259590
2023-04-04T03:09:16.668Z,51.259544
2023-04-04T03:10:16.664Z,51.259583
2023-04-04T03:11:16.681Z,51.259514
2023-04-04T03:12:16.651Z,51.259495
2023-04-04T03:13:16.634Z,51.259594
2023-04-04T03:14:16.634Z,51.259556
2023-04-04T03:15:16.633Z,51.259533
2023-04-04T03:16:16.662Z,51.259541
2023-04-04T03:17:16.595Z,51.259571
2023-04-04T03:18:16.621Z,51.259666
2023-04-04T03:19:16.572Z,51.259548
2023-04-04T03:20:16.567Z,51.259560
2023-04-04T03:21:16.588Z,51.259525
2023-04-04T03:22:16.567Z,51.259586
2023-04-04T03:23:16.537Z,51.259663
2023-04-04T03:24:16.546Z,51.259678
2023-04-04T03:25:16.511Z,51.259548
2023-04-04T03:26:16.519Z,51.259514
2023-04-04T03:27:16.507Z,51.259426
2023-04-04T03:28:16.505Z,51.259537
2023-04-04T03:29:16.496Z,51.259628
2023-04-04T03:30:16.466Z,51.259552
2023-04-04T03:31:16.478Z,51.259499
2023-04-04T03:32:16.437Z,51.259541
2023-04-04T03:33:16.433Z,51.259579
2023-04-04T03:34:16.424Z,51.259602
2023-04-04T03:35:16.409Z,51.259590
2023-04-04T03:36:16.420Z,51.259541
2023-04-04T03:37:16.396Z,51.259521
2023-04-04T03:38:16.372Z,51.259525
2023-04-04T03:39:16.374Z,51.259594
2023-04-04T03:40:16.365Z,51.259491
2023-04-04T03:41:16.400Z,51.259541
2023-04-04T03:42:16.339Z,51.259586
2023-04-04T03:43:16.326Z,51.259579
2023-04-04T03:44:16.325Z,51.259571
2023-04-04T03:45:16.330Z,51.259579
2023-04-04T03:46:16.349Z,51.259640
2023-04-04T03:47:16.287Z,51.259598
2023-04-04T03:48:16.301Z,51.259644
2023-04-04T03:49:16.270Z,51.259575
2023-04-04T03:50:16.254Z,51.259617
2023-04-04T03:51:16.272Z,51.259594
2023-04-04T03:52:16.237Z,51.259586
2023-04-04T03:53:16.228Z,51.259571
2023-04-04T03:54:16.210Z,51.259605
2023-04-04T03:55:16.199Z,51.259605
2023-04-04T03:56:16.223Z,51.259686
2023-04-04T03:57:16.203Z,51.259613
2023-04-04T03:58:16.180Z,51.259533
2023-04-04T03:59:16.224Z,51.259338
2023-04-04T04:00:16.162Z,51.259418
2023-04-04T04:01:16.145Z,51.259586
2023-04-04T04:02:16.207Z,51.259575
2023-04-04T04:03:17.224Z,51.259506
2023-04-04T04:04:17.146Z,51.259502
2023-04-04T04:05:16.100Z,51.259495
2023-04-04T04:06:16.101Z,51.259525
2023-04-04T04:07:16.091Z,51.259514
2023-04-04T04:08:16.077Z,51.259510
2023-04-04T04:09:16.065Z,51.259487
2023-04-04T04:10:16.059Z,51.259464
2023-04-04T04:11:16.040Z,51.259495
2023-04-04T04:12:16.044Z,51.259529
2023-04-04T04:13:16.018Z,51.259491
2023-04-04T04:14:16.014Z,51.259518
2023-04-04T04:15:16.004Z,51.259567
2023-04-04T04:16:16.057Z,51.259529
2023-04-04T04:17:15.998Z,51.259514
2023-04-04T04:18:15.971Z,51.259510
2023-04-04T04:19:16.119Z,51.259483
2023-04-04T04:20:15.956Z,51.259476
2023-04-04T04:21:15.951Z,51.259476
2023-04-04T04:22:15.956Z,51.259441
2023-04-04T04:23:15.929Z,51.259338
2023-04-04T04:24:15.924Z,51.259487
2023-04-04T04:25:15.940Z,51.259483
2023-04-04T04:26:15.895Z,51.259510
2023-04-04T04:27:15.918Z,51.259533
2023-04-04T04:28:15.885Z,51.259583
2023-04-04T04:29:15.872Z,51.259560
2023-04-04T04:30:15.873Z,51.259533
2023-04-04T04:31:15.857Z,51.259556
2023-04-04T04:32:15.893Z,51.259403
2023-04-04T04:33:15.835Z,51.259373
2023-04-04T04:34:15.828Z,51.259407
2023-04-04T04:35:15.813Z,51.259491
2023-04-04T04:36:15.841Z,51.259518
2023-04-04T04:37:15.847Z,51.259556
2023-04-04T04:38:15.788Z,51.259613
2023-04-04T04:39:15.777Z,51.259636
2023-04-04T04:40:15.766Z,51.259670
2023-04-04T04:41:15.758Z,51.259727
2023-04-04T04:42:15.768Z,51.259663
2023-04-04T04:43:15.732Z,51.259552
2023-04-04T04:44:15.727Z,51.259529
2023-04-04T04:45:15.728Z,51.259556
2023-04-04T04:46:15.725Z,51.259571
2023-04-04T04:47:15.708Z,51.259556
2023-04-04T04:48:15.688Z,51.259422
2023-04-04T04:49:15.712Z,51.259415
2023-04-04T04:50:15.674Z,51.259445
2023-04-04T04:51:15.660Z,51.259377
2023-04-04T04:52:15.687Z,51.259483
2023-04-04T04:53:15.639Z,51.259457
2023-04-04T04:54:15.637Z,51.259403
2023-04-04T04:55:15.613Z,51.259449
2023-04-04T04:56:15.612Z,51.259480
2023-04-04T04:57:15.619Z,51.259506
2023-04-04T04:58:15.980Z,51.259499
2023-04-04T04:59:15.617Z,51.259495
2023-04-04T05:00:15.562Z,51.259502
2023-04-04T05:01:15.582Z,51.259453
2023-04-04T05:02:15.585Z,51.259441
2023-04-04T05:03:16.562Z,51.259468
2023-04-04T05:04:15.516Z,51.259495
2023-04-04T05:05:15.510Z,51.259521
2023-04-04T05:06:15.526Z,51.259487
2023-04-04T05:07:15.523Z,51.259510
2023-04-04T05:08:15.485Z,51.259525
2023-04-04T05:09:15.500Z,51.259468
2023-04-04T05:10:15.464Z,51.259686
2023-04-04T05:11:15.456Z,51.259579
2023-04-04T05:12:15.464Z,51.259533
2023-04-04T05:13:15.429Z,51.259560
2023-04-04T05:14:15.422Z,51.259472
2023-04-04T05:15:15.421Z,51.259525
2023-04-04T05:16:15.441Z,51.259487
2023-04-04T05:17:15.424Z,51.259422
2023-04-04T05:18:15.383Z,51.259373
2023-04-04T05:19:15.452Z,51.259403
2023-04-04T05:20:15.368Z,51.259399
2023-04-04T05:21:15.371Z,51.259510
2023-04-04T05:22:15.364Z,51.259537
2023-04-04T05:23:15.328Z,51.259533
2023-04-04T05:24:15.333Z,51.259487
2023-04-04T05:25:15.325Z,51.259415
2023-04-04T05:26:15.300Z,51.259380
2023-04-04T05:27:15.319Z,51.259472
2023-04-04T05:28:15.284Z,51.259460
2023-04-04T05:29:15.266Z,51.259514
2023-04-04T05:30:15.284Z,51.259518
2023-04-04T05:31:15.259Z,51.259499
2023-04-04T05:32:15.431Z,51.259430
2023-04-04T05:33:15.246Z,51.259476
2023-04-04T05:34:15.262Z,51.259495
2023-04-04T05:35:47.161Z,51.259468
2023-04-04T05:36:15.203Z,51.259476
2023-04-04T05:37:15.217Z,51.259445
2023-04-04T05:38:15.202Z,51.259449
2023-04-04T05:39:15.201Z,51.259438
2023-04-04T05:40:15.176Z,51.259434
2023-04-04T05:41:15.182Z,51.259434
2023-04-04T05:42:15.188Z,51.259411
2023-04-04T05:43:15.130Z,51.259377
2023-04-04T05:44:15.124Z,51.259426
2023-04-04T05:45:15.110Z,51.259441
2023-04-04T05:46:15.136Z,51.259407
2023-04-04T05:47:15.124Z,51.259560
2023-04-04T05:48:15.097Z,51.259499
2023-04-04T05:49:15.167Z,51.259399
2023-04-04T05:50:15.084Z,51.259445
2023-04-04T05:51:15.070Z,51.259491
2023-04-04T05:52:15.072Z,51.259464
2023-04-04T05:53:15.043Z,51.259239
2023-04-04T05:54:15.030Z,51.259254
2023-04-04T05:55:15.026Z,51.259369
2023-04-04T05:56:15.013Z,51.259399
2023-04-04T05:57:15.016Z,51.259430
2023-04-04T05:58:15.034Z,51.259377
2023-04-04T05:59:15.004Z,51.259346
2023-04-04T06:00:14.961Z,51.259556
2023-04-04T06:01:14.952Z,51.259701
2023-04-04T06:02:14.969Z,51.259502
2023-04-04T06:03:15.081Z,51.259319
2023-04-04T06:04:14.958Z,51.259361
2023-04-04T06:05:14.917Z,51.259388
2023-04-04T06:06:14.925Z,51.259457
2023-04-04T06:07:14.939Z,51.259407
2023-04-04T06:08:14.913Z,51.259422
2023-04-04T06:09:14.872Z,51.259438
2023-04-04T06:10:14.908Z,51.259472
2023-04-04T06:11:14.862Z,51.259476
2023-04-04T06:12:14.844Z,51.259464
2023-04-04T06:13:14.877Z,51.259487
2023-04-04T06:14:15.332Z,51.259529
2023-04-04T06:15:14.822Z,51.259556
2023-04-04T06:16:14.848Z,51.259590
2023-04-04T06:17:14.820Z,51.259533
2023-04-04T06:18:14.827Z,51.259415
2023-04-04T06:19:14.786Z,51.259476
2023-04-04T06:20:14.777Z,51.259472
2023-04-04T06:21:14.768Z,51.259308
2023-04-04T06:22:14.793Z,51.259541
2023-04-04T06:23:14.741Z,51.259541
2023-04-04T06:24:14.742Z,51.259491
2023-04-04T06:25:14.727Z,51.259518
2023-04-04T06:26:14.731Z,51.259441
2023-04-04T06:27:14.732Z,51.259468
2023-04-04T06:28:14.705Z,51.259468
2023-04-04T06:29:14.743Z,51.259445
2023-04-04T06:30:14.681Z,51.259445
2023-04-04T06:31:14.683Z,51.259457
2023-04-04T06:32:14.700Z,51.259438
2023-04-04T06:33:14.646Z,51.259464
2023-04-04T06:34:14.646Z,51.259514
2023-04-04T06:35:14.640Z,51.259499
2023-04-04T06:36:14.693Z,51.259476
2023-04-04T06:37:14.713Z,51.259418
2023-04-04T06:38:14.602Z,51.259506
2023-04-04T06:39:14.593Z,51.259483
2023-04-04T06:40:14.599Z,51.259472
2023-04-04T06:41:14.573Z,51.259480
2023-04-04T06:42:15.595Z,51.259476
2023-04-04T06:43:14.559Z,51.259460
2023-04-04T06:44:14.586Z,51.259480
2023-04-04T06:45:14.544Z,51.259453
2023-04-04T06:46:14.565Z,51.259483
2023-04-04T06:47:14.536Z,51.259544
2023-04-04T06:48:14.562Z,51.259495
2023-04-04T06:49:14.536Z,51.259506
2023-04-04T06:50:14.523Z,51.259537
2023-04-04T06:51:14.492Z,51.259583
2023-04-04T06:52:14.503Z,51.259537
2023-04-04T06:53:14.504Z,51.259441
2023-04-04T06:54:14.470Z,51.259460
2023-04-04T06:55:15.455Z,51.259460
2023-04-04T06:56:14.456Z,51.259457
2023-04-04T06:57:14.473Z,51.259483
2023-04-04T06:58:14.431Z,51.259502
2023-04-04T06:59:14.467Z,51.259476
2023-04-04T07:00:14.415Z,51.259521
2023-04-04T07:01:14.427Z,51.259514
2023-04-04T07:02:14.442Z,51.259525
2023-04-04T07:03:15.449Z,51.259510
2023-04-04T07:04:14.387Z,51.259491
2023-04-04T07:05:14.394Z,51.259518
2023-04-04T07:06:14.371Z,51.259499
2023-04-04T07:07:14.376Z,51.259525
2023-04-04T07:08:14.356Z,51.259533
2023-04-04T07:09:22.262Z,51.259521
2023-04-04T07:10:16.345Z,51.259499
2023-04-04T07:11:14.341Z,51.259506
2023-04-04T07:12:14.335Z,51.259483
2023-04-04T07:13:14.311Z,51.259521
2023-04-04T07:14:14.297Z,51.259521
2023-04-04T07:15:14.303Z,51.259510
2023-04-04T07:16:14.320Z,51.259579
2023-04-04T07:17:24.298Z,51.259502
2023-04-04T07:18:16.274Z,51.259552
2023-04-04T07:19:14.292Z,51.259575
2023-04-04T07:20:14.262Z,51.259583
2023-04-04T07:21:14.241Z,51.259583
2023-04-04T07:22:14.241Z,51.259548
2023-04-04T07:23:14.230Z,51.259487
2023-04-04T07:24:14.255Z,51.259518
2023-04-04T07:25:14.221Z,51.259487
2023-04-04T07:26:14.208Z,51.259525
2023-04-04T07:27:14.204Z,51.259529
2023-04-04T07:28:14.204Z,51.259571
2023-04-04T07:29:14.209Z,51.259575
2023-04-04T07:30:14.178Z,51.259560
2023-04-04T07:31:14.166Z,51.259560
2023-04-04T07:32:14.181Z,51.259457
2023-04-04T07:33:14.174Z,51.259480
2023-04-04T07:34:14.149Z,51.259407
2023-04-04T07:35:14.137Z,51.259422
2023-04-04T07:36:14.140Z,51.259445
2023-04-04T07:37:14.180Z,51.259495
2023-04-04T07:38:14.101Z,51.259541
2023-04-04T07:39:14.121Z,51.259583
2023-04-04T07:40:15.091Z,51.259613
2023-04-04T07:41:14.087Z,51.259533
2023-04-04T07:42:14.072Z,51.259483
2023-04-04T07:43:14.065Z,51.259506
2023-04-04T07:44:14.074Z,51.259476
2023-04-04T07:45:14.039Z,51.259560
2023-04-04T07:46:14.045Z,51.259548
2023-04-04T07:47:14.018Z,51.259480
2023-04-04T07:48:14.049Z,51.259480
2023-04-04T07:49:14.039Z,51.259552
2023-04-04T07:50:13.998Z,51.259571
2023-04-04T07:51:13.987Z,51.259560
2023-04-04T07:52:13.970Z,51.259594
2023-04-04T07:53:13.969Z,51.259586
2023-04-04T07:54:13.942Z,51.259590
2023-04-04T07:55:15.556Z,51.259552
2023-04-04T07:56:13.939Z,51.259567
2023-04-04T07:57:14.005Z,51.259605
2023-04-04T07:58:13.938Z,51.259491
2023-04-04T07:59:13.930Z,51.259647
2023-04-04T08:00:13.895Z,51.259571
2023-04-04T08:01:13.865Z,51.259594
2023-04-04T08:02:13.883Z,51.259579
2023-04-04T08:03:13.990Z,51.259541
2023-04-04T08:04:13.903Z,51.259575
2023-04-04T08:05:13.824Z,51.259651
2023-04-04T08:06:13.828Z,51.259628
2023-04-04T08:07:13.811Z,51.259632
2023-04-04T08:08:13.807Z,51.259655
2023-04-04T08:09:13.808Z,51.259735
2023-04-04T08:10:13.777Z,51.259747
2023-04-04T08:11:13.766Z,51.259666
2023-04-04T08:12:13.738Z,51.259602
2023-04-04T08:13:13.761Z,51.259617
2023-04-04T08:14:14.725Z,51.259636
2023-04-04T08:15:13.717Z,51.259644
2023-04-04T08:16:13.737Z,51.259663
2023-04-04T08:17:13.686Z,51.259705
2023-04-04T08:18:14.700Z,51.259670
2023-04-04T08:19:13.677Z,51.259647
2023-04-04T08:20:13.669Z,51.259682
2023-04-04T08:21:13.670Z,51.259644
2023-04-04T08:22:13.724Z,51.259590
2023-04-04T08:23:13.670Z,51.259552
2023-04-04T08:24:13.611Z,51.259598
2023-04-04T08:25:13.616Z,51.259640
2023-04-04T08:26:13.591Z,51.259605
2023-04-04T08:27:13.579Z,51.259617
2023-04-04T08:28:13.596Z,51.259640
2023-04-04T08:29:13.552Z,51.259571
2023-04-04T08:30:13.558Z,51.259567
2023-04-04T08:31:13.536Z,51.259563
2023-04-04T08:32:13.509Z,51.259617
2023-04-04T08:33:13.571Z,51.259560
2023-04-04T08:34:13.498Z,51.259571
2023-04-04T08:35:13.484Z,51.259525
2023-04-04T08:36:13.470Z,51.259487
2023-04-04T08:37:13.472Z,51.259636
2023-04-04T08:38:13.470Z,51.259693
2023-04-04T08:39:13.438Z,51.259815
2023-04-04T08:40:13.445Z,51.259808
2023-04-04T08:41:13.743Z,51.259754
2023-04-04T08:42:13.422Z,51.259678
2023-04-04T08:43:13.406Z,51.259560
2023-04-04T08:44:13.381Z,51.259647
2023-04-04T08:45:13.395Z,51.259712
2023-04-04T08:46:13.388Z,51.259666
2023-04-04T08:47:13.358Z,51.259823
2023-04-04T08:48:13.366Z,51.259968
2023-04-04T08:49:13.337Z,51.259792
2023-04-04T08:50:13.339Z,51.259663
2023-04-04T08:51:13.323Z,51.259724
2023-04-04T08:52:13.304Z,51.259659
2023-04-04T08:53:13.308Z,51.259666
2023-04-04T08:54:13.282Z,51.259632
2023-04-04T08:55:13.272Z,51.259666
2023-04-04T08:56:13.262Z,51.259548
2023-04-04T08:57:13.248Z,51.259468
2023-04-04T08:58:13.264Z,51.259762
2023-04-04T08:59:13.301Z,51.259747
2023-04-04T09:00:13.354Z,51.259747
2023-04-04T09:01:13.285Z,51.259644
2023-04-04T09:02:13.278Z,51.259575
2023-04-04T09:03:13.250Z,51.259575
2023-04-04T09:04:13.181Z,51.259575
2023-04-04T09:05:13.190Z,51.259556
2023-04-04T09:06:13.153Z,51.259575
2023-04-04T09:07:13.147Z,51.259583
2023-04-04T09:08:13.149Z,51.259560
2023-04-04T09:09:13.143Z,51.259594
2023-04-04T09:10:13.134Z,51.259613
2023-04-04T09:11:13.107Z,51.259659
2023-04-04T09:12:14.094Z,51.259644
2023-04-04T09:13:16.573Z,51.259571
2023-04-04T09:14:14.077Z,51.259628
2023-04-04T09:15:13.075Z,51.259651
2023-04-04T09:16:13.077Z,51.259674
2023-04-04T09:17:13.038Z,51.259663
2023-04-04T09:18:13.054Z,51.259647
2023-04-04T09:19:13.029Z,51.259628
2023-04-04T09:20:13.076Z,51.259544
2023-04-04T09:21:12.993Z,51.259567
2023-04-04T09:22:12.992Z,51.259533
2023-04-04T09:23:12.991Z,51.259605
2023-04-04T09:24:12.966Z,51.259506
2023-04-04T09:25:12.946Z,51.259499
2023-04-04T09:26:12.959Z,51.259506
2023-04-04T09:27:12.946Z,51.259453
2023-04-04T09:28:12.940Z,51.259518
2023-04-04T09:29:12.897Z,51.259521
2023-04-04T09:30:12.894Z,51.259453
2023-04-04T09:31:12.883Z,51.259472
2023-04-04T09:32:12.957Z,51.259460
2023-04-04T09:33:12.891Z,51.259537
2023-04-04T09:42:59.053Z,51.259541
2023-04-04T09:43:59.047Z,51.259457
2023-04-04T09:44:59.025Z,51.259571
2023-04-04T09:45:59.045Z,51.259678
2023-04-04T09:46:59.016Z,51.259678
2023-04-04T09:47:58.999Z,51.259678
2023-04-04T09:48:58.985Z,51.259655
2023-04-04T09:49:58.979Z,51.260239
2023-04-04T09:50:59.012Z,51.260021
2023-04-04T09:51:58.954Z,51.259998
2023-04-04T09:52:58.948Z,51.259636
2023-04-04T09:53:58.949Z,51.259636
2023-04-04T09:54:58.925Z,51.259777
2023-04-04T09:55:58.914Z,51.259754
2023-04-04T09:56:58.900Z,51.259544
2023-04-04T09:57:58.907Z,51.259560
2023-04-04T09:59:04.011Z,51.259583
2023-04-04T10:00:00.937Z,51.259548
2023-04-04T10:00:58.858Z,51.259445
2023-04-04T10:01:58.922Z,51.259518
2023-04-04T10:02:58.896Z,51.259480
2023-04-04T10:03:58.911Z,51.259537
2023-04-04T10:05:06.016Z,51.259518
2023-04-04T10:06:00.808Z,51.259438
2023-04-04T10:06:58.800Z,51.259499
2023-04-04T10:07:58.794Z,51.259407
2023-04-04T10:08:58.806Z,51.259506
2023-04-04T10:09:58.774Z,51.259460
2023-04-04T10:11:09.683Z,51.259449
2023-04-04T10:12:00.758Z,51.259521
2023-04-04T10:12:58.739Z,51.259586
2023-04-04T10:13:58.758Z,51.259556
2023-04-04T10:14:58.726Z,51.259457
2023-04-04T10:15:58.729Z,51.259384
2023-04-04T10:16:58.714Z,51.259468
2023-04-04T10:17:58.736Z,51.259388
2023-04-04T10:18:58.708Z,51.259430
2023-04-04T10:19:58.679Z,51.259384
2023-04-04T10:21:12.256Z,51.259537
2023-04-04T10:22:00.653Z,51.259502
2023-04-04T10:22:58.653Z,51.259426
2023-04-04T10:23:58.658Z,51.259518
2023-04-04T10:24:58.631Z,51.259571
2023-04-04T10:25:58.621Z,51.259556
2023-04-04T10:26:58.604Z,51.259544
2023-04-04T10:27:58.611Z,51.259533
2023-04-04T10:28:58.618Z,51.259548
2023-04-04T10:29:58.594Z,51.259533
2023-04-04T10:31:06.348Z,51.259575
2023-04-04T10:32:00.607Z,51.259506
2023-04-04T10:32:58.579Z,51.259499
2023-04-04T10:33:58.556Z,51.259525
2023-04-04T10:34:58.544Z,51.259411
2023-04-04T10:35:58.560Z,51.259533
2023-04-04T10:36:58.623Z,51.259541
2023-04-04T10:37:58.516Z,51.259537
2023-04-04T10:38:58.518Z,51.259525
2023-04-04T10:39:58.504Z,51.259651
2023-04-04T10:40:58.497Z,51.259605
2023-04-04T10:41:58.483Z,51.259487
2023-04-04T10:42:58.481Z,51.259651
2023-04-04T10:43:58.477Z,51.259533
2023-04-04T10:45:06.084Z,51.259499
2023-04-04T10:46:00.450Z,51.259644
2023-04-04T10:46:58.489Z,51.259624
2023-04-04T10:47:58.443Z,51.259598
2023-04-04T10:48:58.456Z,51.259548
2023-04-04T10:49:58.404Z,51.259613
2023-04-04T10:50:58.391Z,51.259674
2023-04-04T10:51:58.399Z,51.259560
2023-04-04T10:52:58.394Z,51.259430
2023-04-04T10:53:58.377Z,51.259495
2023-04-04T10:54:58.343Z,51.259567
2023-04-04T10:55:58.341Z,51.259537
2023-04-04T10:56:58.337Z,51.259529
2023-04-04T10:57:58.333Z,51.259468
2023-04-04T10:58:58.407Z,51.259583
2023-04-04T10:59:58.321Z,51.259510
2023-04-04T11:00:58.340Z,51.259529
2023-04-04T11:01:58.293Z,51.259518
2023-04-04T11:02:58.408Z,51.259502
2023-04-04T11:03:58.312Z,51.259441
2023-04-04T11:04:58.251Z,51.259449
2023-04-04T11:05:58.247Z,51.259487
2023-04-04T11:06:58.237Z,51.259476
2023-04-04T11:08:06.919Z,51.259594
2023-04-04T11:09:00.318Z,51.259655
2023-04-04T11:09:58.213Z,51.259617
2023-04-04T11:10:58.209Z,51.259621
2023-04-04T11:11:58.189Z,51.259548
2023-04-04T11:13:09.564Z,51.259472
2023-04-04T11:14:00.174Z,51.259518
2023-04-04T11:14:58.277Z,51.259457
2023-04-04T11:15:58.172Z,51.259445
2023-04-04T11:16:58.182Z,51.259445
2023-04-04T11:17:58.202Z,51.259476
2023-04-04T11:18:58.138Z,51.259457
2023-04-04T11:19:58.101Z,51.259525
2023-04-04T11:20:58.114Z,51.259514
2023-04-04T11:21:58.086Z,51.259422
2023-04-04T11:22:58.107Z,51.259495
2023-04-04T11:23:58.128Z,51.259510
2023-04-04T11:24:58.051Z,51.259521
2023-04-04T11:25:58.047Z,51.259495
2023-04-04T11:26:58.041Z,51.259453
2023-04-04T11:27:58.172Z,51.259506
2023-04-04T11:28:58.057Z,51.259518
2023-04-04T11:29:58.018Z,51.259499
2023-04-04T11:30:58.010Z,51.259571
2023-04-04T11:31:58.021Z,51.259438
2023-04-04T11:33:07.431Z,51.259430